BIRKEDHL

Guest
Details From BIRK - Reykjavik
To EDHL - Lubeck Blankensee
Flight Number -
Tags Generated
Created
Modified
Stats Distance 1,167 nm / 2,160 km
Max Altitude 0 ft / 0 m
Waypoints 4
Social Downloads 0
Likes 0
Share VATSIM

Download

Looking for another format? Having issues loading an existing format? Contact us
Advertisement - Login to hide

Notes

Generated

Route

BIRK SISRA DH615 EDHL

ID Type Via Altitude Latitude Longitude Leg Dist Tot Dist Heading (true) Name
O BIRK APT - 0 ft / 0 m 64.12743˚ -21.94699˚ - 0 nm - -
SISRA FIX - 0 ft / 0 m 56.32833˚ 6.00000˚ 944 nm 944 nm 107° / 131° -
DH615 FIX - 0 ft / 0 m 53.83904˚ 10.63221˚ 218 nm 1163 nm 131° / 135° -
O EDHL APT - 0 ft / 0 m 53.80205˚ 10.70189˚ 3 nm 1166 nm 132° / 132° -

Altitude Profile

Advertisement - Login to hide

Weather


0- 5 10 15 20 25 30 35+ Temperature / ° C

Clouds and Precipitation
Forecast for 2017-12-15 12:00 UTC. Updated an hour ago

Ground ~20,000 ft ~40,000 ft Winds

BIRK

Details ICAO BIRK (RKV)
Name Reykjavik
Region Iceland
Timezone Atlantic/Reykjavik (UTC+0.0)
Stats Elevation 47 ft / 14 m (AMSL)
Location 64.129644° -21.940609°
Runways 3
Magnetic Variation 13.774° W

METAR

BIRK 150800Z 11007KT CAVOK M07/M11 Q1015 R19/390041

Decode

TAF

TAF BIRK 150744Z 1509/1609 11005KT CAVOK TXM01/1606Z TNM07/1509Z BECMG 1602/1605 11015KT 9999 FEW025 BKN035 BECMG 1606/1609 09020G30KT

Decode

Departure Runways

ID Width Length Bearing (true) Bearing (mag) Surface Threshold Offset Overrun Length
01 148 ft / 45 m 5,129 ft / 1,563 m 355.27° 9.04° Asphalt 262 ft / 80 m 0 ft / 0 m
06 98 ft / 30 m 2,800 ft / 853 m 46.35° 60.12° Asphalt 299 ft / 91 m 0 ft / 0 m
13 148 ft / 45 m 4,023 ft / 1,226 m 116.28° 130.05° Asphalt 0 ft / 0 m 0 ft / 0 m
19 148 ft / 45 m 5,129 ft / 1,563 m 175.27° 189.04° Asphalt 0 ft / 0 m 0 ft / 0 m
24 98 ft / 30 m 2,800 ft / 853 m 226.37° 240.14° Asphalt 0 ft / 0 m 0 ft / 0 m
31 148 ft / 45 m 4,023 ft / 1,226 m 296.30° 310.07° Asphalt 213 ft / 65 m 0 ft / 0 m

EDHL

Details ICAO EDHL (LBC)
Name Lubeck Blankensee
Region Germany - Civil
Timezone Europe/Berlin (UTC+1.0)
Stats Elevation 53 ft / 16 m (AMSL)
Location 53.804963° 10.717059°
Runways 1
Magnetic Variation 3.022° E

METAR

EDHL 150820Z 22004KT 9999 SCT023 02/01 Q0993

Decode

TAF

Not found

Destination Runways

ID Width Length Bearing (true) Bearing (mag) Surface Threshold Offset Overrun Length
07 197 ft / 60 m 6,877 ft / 2,096 m 71.96° 68.94° Asphalt 984 ft / 300 m 0 ft / 0 m
25 197 ft / 60 m 6,877 ft / 2,096 m 251.98° 248.96° Asphalt 0 ft / 0 m 0 ft / 0 m

Approach Navaids

Runway Type Ident Frequency Range Bearing (true) Bearing (mag) Slope Elevation
07 Localiser ILUE 111.70 MHz 18 nm / 33 km 72.14° 69.12° - 53 ft / 16 m (AMSL)
07 Glidescope ILUE 111.70 MHz 10 nm / 19 km 71.97° 68.95° 3.00° 53 ft / 16 m (AMSL)
25 Localiser ILUW 111.70 MHz 18 nm / 33 km 251.79° 248.77° - 47 ft / 14 m (AMSL)
25 Glidescope ILUW 111.70 MHz 10 nm / 19 km 251.97° 248.95° 3.00° 47 ft / 14 m (AMSL)